createdAt,value
2019-03-25T00:01:08.681Z,8.13
2019-03-25T00:06:05.684Z,8.18
2019-03-25T00:11:02.734Z,8.06
2019-03-25T00:15:59.852Z,7.81
2019-03-25T00:20:56.936Z,8.09
2019-03-25T00:25:53.923Z,8.01
2019-03-25T00:30:50.910Z,8.12
2019-03-25T00:35:47.996Z,8.19
2019-03-25T00:40:45.019Z,8.08
2019-03-25T00:45:42.015Z,8.01
2019-03-25T00:50:39.039Z,8.06
2019-03-25T00:55:36.094Z,8.28
2019-03-25T01:00:33.103Z,7.83
2019-03-25T01:05:30.176Z,7.98
2019-03-25T01:10:27.279Z,8.07
2019-03-25T01:15:24.269Z,7.90
2019-03-25T01:20:21.252Z,7.89
2019-03-25T01:25:18.476Z,8.08
2019-03-25T01:30:15.448Z,8.12
2019-03-25T01:35:12.657Z,8.08
2019-03-25T01:40:09.706Z,8.23
2019-03-25T01:45:07.321Z,8.09
2019-03-25T01:50:05.933Z,8.33
2019-03-25T01:55:12.939Z,8.41
2019-03-25T02:00:05.516Z,8.48
2019-03-25T02:05:02.675Z,8.07
2019-03-25T02:09:59.636Z,8.23
2019-03-25T02:14:58.318Z,8.29
2019-03-25T02:19:55.258Z,8.28
2019-03-25T02:24:52.264Z,8.21
2019-03-25T02:29:50.231Z,8.29
2019-03-25T02:34:47.358Z,8.05
2019-03-25T02:39:44.540Z,8.05
2019-03-25T02:44:41.522Z,8.24
2019-03-25T02:49:38.572Z,8.49
2019-03-25T02:54:35.650Z,8.64
2019-03-25T02:59:32.714Z,8.63
2019-03-25T03:04:29.820Z,8.62
2019-03-25T03:09:26.885Z,8.62
2019-03-25T03:14:23.994Z,8.51
2019-03-25T03:19:20.970Z,8.48
2019-03-25T03:24:18.107Z,8.49
2019-03-25T03:29:15.111Z,8.18
2019-03-25T03:34:14.030Z,7.66
2019-03-25T03:39:11.073Z,7.32
2019-03-25T03:44:08.378Z,7.10
2019-03-25T03:49:05.496Z,6.88
2019-03-25T03:54:02.599Z,6.51
2019-03-25T03:59:02.790Z,6.29
2019-03-25T04:03:59.884Z,5.87
2019-03-25T04:08:56.842Z,5.68
2019-03-25T04:13:53.950Z,5.80
2019-03-25T04:18:50.997Z,5.43
2019-03-25T04:23:48.124Z,5.60
2019-03-25T04:28:45.200Z,5.73
2019-03-25T04:33:42.243Z,5.83
2019-03-25T04:38:40.710Z,5.78
2019-03-25T04:43:37.779Z,5.62
2019-03-25T04:48:36.457Z,5.84
2019-03-25T04:53:33.662Z,5.48
2019-03-25T04:58:30.773Z,5.42
2019-03-25T05:03:27.805Z,5.02
2019-03-25T05:08:24.878Z,5.11
2019-03-25T05:13:22.039Z,4.97
2019-03-25T05:18:19.076Z,5.21
2019-03-25T05:23:16.083Z,5.31
2019-03-25T05:28:15.290Z,5.50
2019-03-25T05:33:12.406Z,5.65
2019-03-25T05:38:09.418Z,5.83
2019-03-25T05:43:06.588Z,5.88
2019-03-25T05:48:03.643Z,6.02
2019-03-25T05:53:01.165Z,5.83
2019-03-25T05:57:58.212Z,5.96
2019-03-25T06:02:55.333Z,5.90
2019-03-25T06:07:53.521Z,6.16
2019-03-25T06:12:56.802Z,6.28
2019-03-25T06:17:53.887Z,6.47
2019-03-25T06:22:53.165Z,6.49
2019-03-25T06:27:50.111Z,6.42
2019-03-25T06:32:49.056Z,6.44
2019-03-25T06:37:47.234Z,6.63
2019-03-25T06:42:44.299Z,6.86
2019-03-25T06:47:41.463Z,6.88
2019-03-25T06:52:38.615Z,6.63
2019-03-25T06:57:38.355Z,6.65
2019-03-25T07:02:34.586Z,6.97
2019-03-25T07:07:31.707Z,6.87
2019-03-25T07:12:35.049Z,7.53
2019-03-25T07:17:32.134Z,7.98
2019-03-25T07:22:30.760Z,8.09
2019-03-25T07:27:36.382Z,8.46
2019-03-25T07:32:26.779Z,8.35
2019-03-25T07:37:23.972Z,8.35
2019-03-25T07:42:21.077Z,8.89
2019-03-25T07:47:27.273Z,9.28
2019-03-25T07:52:24.992Z,9.55
2019-03-25T07:57:24.195Z,10.20
2019-03-25T08:02:24.530Z,10.34
2019-03-25T08:07:21.704Z,10.47
2019-03-25T08:12:18.807Z,10.81
2019-03-25T08:17:18.293Z,10.75
2019-03-25T08:22:15.411Z,11.03
2019-03-25T08:27:12.566Z,11.10
2019-03-25T08:32:09.697Z,11.07
2019-03-25T08:37:11.311Z,10.73
2019-03-25T08:48:03.197Z,11.76
2019-03-25T08:53:00.329Z,12.24
2019-03-25T08:57:57.741Z,12.40
2019-03-25T09:02:54.733Z,12.55
2019-03-25T09:07:51.830Z,12.46
2019-03-25T09:12:48.886Z,12.23
2019-03-25T09:17:46.033Z,12.81
2019-03-25T09:22:49.274Z,13.01
2019-03-25T09:34:18.396Z,13.28
2019-03-25T09:39:20.300Z,13.09
2019-03-25T09:44:22.263Z,12.97
2019-03-25T09:49:19.279Z,13.53
2019-03-25T09:54:31.193Z,14.09
2019-03-25T09:59:28.308Z,14.49
2019-03-25T10:04:25.646Z,14.64
2019-03-25T10:09:26.432Z,14.46
2019-03-25T10:14:28.331Z,14.62
2019-03-25T10:19:27.265Z,14.73
2019-03-25T10:24:27.840Z,14.45
2019-03-25T10:29:23.705Z,14.13
2019-03-25T10:34:20.870Z,14.62
2019-03-25T10:39:17.886Z,14.51
2019-03-25T10:44:15.010Z,14.18
2019-03-25T10:49:11.951Z,13.80
2019-03-25T10:54:11.205Z,13.53
2019-03-25T10:59:08.722Z,13.47
2019-03-25T11:04:06.239Z,13.44
2019-03-25T11:09:05.921Z,13.32
2019-03-25T11:14:03.015Z,13.08
2019-03-25T11:19:18.101Z,13.32
2019-03-25T11:24:15.282Z,13.35
2019-03-25T11:29:12.441Z,13.42
2019-03-25T11:34:09.393Z,13.53
2019-03-25T11:39:08.044Z,13.29
2019-03-25T11:44:05.601Z,13.29
2019-03-25T11:49:02.813Z,13.17
2019-03-25T11:53:59.874Z,12.93
2019-03-25T11:58:58.358Z,12.68
2019-03-25T12:03:56.733Z,12.51
2019-03-25T12:08:53.802Z,12.38
2019-03-25T12:13:50.908Z,12.13
2019-03-25T12:18:48.074Z,11.83
2019-03-25T12:23:46.981Z,11.83
2019-03-25T12:28:46.268Z,11.63
2019-03-25T12:33:43.418Z,11.66
2019-03-25T12:38:41.120Z,11.85
2019-03-25T12:43:38.191Z,12.11
2019-03-25T12:48:37.968Z,12.58
2019-03-25T12:53:35.000Z,13.27
2019-03-25T12:58:32.200Z,13.89
2019-03-25T13:03:32.106Z,13.96
2019-03-25T13:08:33.468Z,13.77
2019-03-25T13:13:31.258Z,13.95
2019-03-25T13:18:28.318Z,14.41
2019-03-25T13:23:26.148Z,14.49
2019-03-25T13:28:24.693Z,14.64
2019-03-25T13:33:21.755Z,14.22
2019-03-25T13:38:18.915Z,14.10
2019-03-25T13:43:16.044Z,13.94
2019-03-25T13:48:14.562Z,13.92
2019-03-25T13:53:11.736Z,13.93
2019-03-25T13:58:08.706Z,13.69
2019-03-25T14:03:06.094Z,13.53
2019-03-25T14:08:03.211Z,13.61
2019-03-25T14:13:00.717Z,13.56
2019-03-25T14:17:59.916Z,13.36
2019-03-25T14:22:57.165Z,13.46
2019-03-25T14:27:54.372Z,13.31
2019-03-25T14:32:52.739Z,13.21
2019-03-25T14:37:49.732Z,13.14
2019-03-25T14:42:46.981Z,13.03
2019-03-25T14:47:43.986Z,12.94
2019-03-25T14:52:41.235Z,12.85
2019-03-25T14:57:40.543Z,12.92
2019-03-25T15:02:37.764Z,12.77
2019-03-25T15:07:34.852Z,12.64
2019-03-25T15:12:32.790Z,12.46
2019-03-25T15:17:29.964Z,12.54
2019-03-25T15:22:27.185Z,12.53
2019-03-25T15:27:24.247Z,12.42
2019-03-25T15:32:21.447Z,12.07
2019-03-25T15:37:18.445Z,12.05
2019-03-25T15:42:15.600Z,11.94
2019-03-25T15:47:12.683Z,11.90
2019-03-25T15:52:09.745Z,11.82
2019-03-25T15:57:06.906Z,11.80
2019-03-25T16:02:04.353Z,11.68
2019-03-25T16:07:01.325Z,11.46
2019-03-25T16:11:58.517Z,11.34
2019-03-25T16:16:55.592Z,11.32
2019-03-25T16:21:54.311Z,11.21
2019-03-25T16:26:51.376Z,11.22
2019-03-25T16:31:48.517Z,11.08
2019-03-25T16:36:45.560Z,11.06
2019-03-25T16:41:42.719Z,11.01
2019-03-25T16:46:39.766Z,10.87
2019-03-25T16:51:37.033Z,10.58
2019-03-25T16:56:34.166Z,10.13
2019-03-25T17:01:31.400Z,10.02
2019-03-25T17:06:28.612Z,9.43
2019-03-25T17:11:25.860Z,9.16
2019-03-25T17:16:22.969Z,8.99
2019-03-25T17:21:20.136Z,8.68
2019-03-25T17:26:18.042Z,8.49
2019-03-25T17:31:20.872Z,8.58
2019-03-25T17:36:13.929Z,8.36
2019-03-25T17:41:11.045Z,8.16
2019-03-25T17:46:08.048Z,8.13
2019-03-25T17:51:05.227Z,7.90
2019-03-25T17:56:02.311Z,7.62
2019-03-25T18:01:03.753Z,7.67
2019-03-25T18:06:00.824Z,7.46
2019-03-25T18:10:58.015Z,7.47
2019-03-25T18:15:55.129Z,7.53
2019-03-25T18:20:52.306Z,7.46
2019-03-25T18:25:49.362Z,7.32
2019-03-25T18:30:47.687Z,7.36
2019-03-25T18:35:44.736Z,7.21
2019-03-25T18:40:42.140Z,7.30
2019-03-25T18:45:39.622Z,7.04
2019-03-25T18:50:36.925Z,7.09
2019-03-25T18:55:36.826Z,6.78
2019-03-25T19:00:35.926Z,7.02
2019-03-25T19:05:33.042Z,7.02
2019-03-25T19:10:30.446Z,7.13
2019-03-25T19:15:27.567Z,7.30
2019-03-25T19:20:25.059Z,7.21
2019-03-25T19:25:22.021Z,7.22
2019-03-25T19:30:19.041Z,7.22
2019-03-25T19:35:16.320Z,7.21
2019-03-25T19:40:13.939Z,7.21
2019-03-25T19:45:12.890Z,7.12
2019-03-25T19:50:10.700Z,6.89
2019-03-25T19:55:07.855Z,6.92
2019-03-25T20:00:07.990Z,7.06
2019-03-25T20:05:07.232Z,6.88
2019-03-25T20:10:08.339Z,6.97
2019-03-25T20:15:06.312Z,6.78
2019-03-25T20:20:05.768Z,6.68
2019-03-25T20:25:06.762Z,6.77
2019-03-25T20:30:09.738Z,6.86
2019-03-25T20:35:07.582Z,6.68
2019-03-25T20:40:10.703Z,6.99
2019-03-25T20:45:08.109Z,6.76
2019-03-25T20:50:05.477Z,6.79
2019-03-25T20:55:06.116Z,6.93
2019-03-25T21:00:07.952Z,7.02
2019-03-25T21:05:07.268Z,7.19
2019-03-25T21:10:06.204Z,7.08
2019-03-25T21:15:06.404Z,7.19
2019-03-25T21:20:06.857Z,7.07
2019-03-25T21:25:05.758Z,7.09
2019-03-25T21:30:05.269Z,7.12
2019-03-25T21:35:03.449Z,7.10
2019-03-25T21:40:00.680Z,7.02
2019-03-25T21:44:58.262Z,6.85
2019-03-25T21:49:57.284Z,6.99
2019-03-25T21:54:54.325Z,6.81
2019-03-25T21:59:53.283Z,6.84
2019-03-25T22:04:50.595Z,6.74
2019-03-25T22:09:49.810Z,6.58
2019-03-25T22:14:46.878Z,6.52
2019-03-25T22:19:44.434Z,6.61
2019-03-25T22:24:41.519Z,6.60
2019-03-25T22:29:38.553Z,6.62
2019-03-25T22:34:35.516Z,6.63
2019-03-25T22:39:32.652Z,6.65
2019-03-25T22:44:29.708Z,6.57
2019-03-25T22:49:27.072Z,6.42
2019-03-25T22:54:24.082Z,6.34
2019-03-25T22:59:21.103Z,6.35
2019-03-25T23:04:18.052Z,6.22
2019-03-25T23:09:15.097Z,6.16
2019-03-25T23:14:12.193Z,6.15
2019-03-25T23:19:09.179Z,6.10
2019-03-25T23:24:06.161Z,6.23
2019-03-25T23:29:03.267Z,6.28
2019-03-25T23:34:00.307Z,6.13
2019-03-25T23:38:57.418Z,6.12
2019-03-25T23:43:54.541Z,6.19
2019-03-25T23:48:51.611Z,5.98
2019-03-25T23:53:48.702Z,6.17
2019-03-25T23:58:46.656Z,6.11
